createdAt,value
2023-04-17T00:00:41.051Z,7.20
2023-04-17T00:03:12.446Z,7.20
2023-04-17T00:05:44.125Z,7.20
2023-04-17T00:08:12.922Z,7.00
2023-04-17T00:10:41.678Z,7.10
2023-04-17T00:13:10.438Z,7.10
2023-04-17T00:15:40.491Z,7.20
2023-04-17T00:18:10.593Z,7.20
2023-04-17T00:20:39.279Z,7.20
2023-04-17T00:23:08.011Z,7.20
2023-04-17T00:25:36.729Z,7.20
2023-04-17T00:28:05.393Z,7.20
2023-04-17T00:30:34.047Z,7.10
2023-04-17T00:33:02.904Z,7.10
2023-04-17T00:35:32.997Z,7.80
2023-04-17T00:38:01.600Z,7.00
2023-04-17T00:40:30.251Z,7.10
2023-04-17T00:43:02.272Z,7.10
2023-04-17T00:45:31.491Z,7.00
2023-04-17T00:48:01.705Z,7.10
2023-04-17T00:50:33.141Z,7.10
2023-04-17T00:53:02.677Z,7.00
2023-04-17T00:55:33.888Z,7.00
2023-04-17T00:58:03.331Z,7.00
2023-04-17T01:00:32.073Z,6.90
2023-04-17T01:03:00.973Z,6.90
2023-04-17T01:05:30.200Z,6.90
2023-04-17T01:08:00.825Z,6.90
2023-04-17T01:10:29.674Z,6.90
2023-04-17T01:13:05.508Z,6.90
2023-04-17T01:15:34.487Z,6.90
2023-04-17T01:18:03.545Z,6.90
2023-04-17T01:20:33.239Z,6.80
2023-04-17T01:23:03.551Z,6.80
2023-04-17T01:25:33.839Z,6.80
2023-04-17T01:28:02.557Z,6.80
2023-04-17T01:30:31.365Z,6.80
2023-04-17T01:33:00.174Z,6.80
2023-04-17T01:35:28.945Z,6.80
2023-04-17T01:37:57.811Z,6.80
2023-04-17T01:40:26.657Z,6.80
2023-04-17T01:42:56.785Z,6.90
2023-04-17T01:45:25.678Z,6.80
2023-04-17T01:47:54.353Z,6.90
2023-04-17T01:50:23.155Z,6.90
2023-04-17T01:52:51.859Z,7.00
2023-04-17T01:55:20.772Z,6.90
2023-04-17T01:57:52.354Z,6.90
2023-04-17T02:00:23.642Z,6.90
2023-04-17T02:02:52.574Z,6.80
2023-04-17T02:05:21.634Z,6.80
2023-04-17T02:07:52.270Z,6.80
2023-04-17T02:10:20.892Z,6.70
2023-04-17T02:12:49.479Z,6.70
2023-04-17T02:15:18.016Z,6.70
2023-04-17T02:17:48.073Z,6.70
2023-04-17T02:20:17.254Z,6.60
2023-04-17T02:22:46.117Z,6.60
2023-04-17T02:25:14.794Z,6.50
2023-04-17T02:27:43.198Z,6.80
2023-04-17T02:30:12.965Z,6.50
2023-04-17T02:32:41.516Z,6.40
2023-04-17T02:35:12.971Z,6.40
2023-04-17T02:37:41.400Z,6.40
2023-04-17T02:40:10.722Z,6.40
2023-04-17T02:42:39.233Z,6.40
2023-04-17T02:45:11.939Z,6.30
2023-04-17T02:47:41.280Z,6.30
2023-04-17T02:50:11.022Z,6.30
2023-04-17T02:52:42.053Z,6.20
2023-04-17T02:55:11.135Z,6.50
2023-04-17T02:57:39.876Z,6.20
2023-04-17T03:00:13.218Z,6.20
2023-04-17T03:02:42.204Z,6.20
2023-04-17T03:05:11.828Z,6.20
2023-04-17T03:07:42.266Z,6.30
2023-04-17T03:10:11.293Z,6.30
2023-04-17T03:12:40.637Z,6.20
2023-04-17T03:15:10.327Z,6.10
2023-04-17T03:17:38.975Z,6.20
2023-04-17T03:20:09.688Z,6.10
2023-04-17T03:22:38.157Z,6.10
2023-04-17T03:25:09.219Z,6.10
2023-04-17T03:27:38.863Z,6.10
2023-04-17T03:30:09.138Z,7.00
2023-04-17T03:32:38.375Z,6.10
2023-04-17T03:35:07.407Z,6.10
2023-04-17T03:37:36.255Z,6.10
2023-04-17T03:40:05.931Z,6.10
2023-04-17T03:42:35.843Z,6.00
2023-04-17T03:45:04.948Z,6.00
2023-04-17T03:47:33.565Z,6.00
2023-04-17T03:50:02.277Z,6.00
2023-04-17T03:52:30.754Z,6.00
2023-04-17T03:54:59.583Z,6.00
2023-04-17T03:57:28.008Z,6.00
2023-04-17T03:59:57.952Z,5.90
2023-04-17T04:02:26.649Z,5.90
2023-04-17T04:04:55.570Z,5.90
2023-04-17T04:07:24.351Z,5.90
2023-04-17T04:09:52.984Z,6.00
2023-04-17T04:12:23.188Z,6.00
2023-04-17T04:14:52.043Z,5.90
2023-04-17T04:17:21.730Z,5.90
2023-04-17T04:19:49.936Z,6.00
2023-04-17T04:22:18.978Z,6.00
2023-04-17T04:24:47.460Z,6.10
2023-04-17T04:27:18.196Z,6.20
2023-04-17T04:29:49.693Z,6.20
2023-04-17T04:32:18.259Z,6.20
2023-04-17T04:34:47.893Z,6.30
2023-04-17T04:37:22.092Z,6.20
2023-04-17T04:39:54.080Z,6.20
2023-04-17T04:42:22.779Z,6.20
2023-04-17T04:44:51.079Z,6.30
2023-04-17T04:47:20.111Z,6.30
2023-04-17T04:49:49.810Z,6.30
2023-04-17T04:52:17.995Z,6.30
2023-04-17T04:54:46.266Z,6.40
2023-04-17T04:57:14.489Z,6.40
2023-04-17T04:59:42.728Z,6.50
2023-04-17T05:02:11.159Z,6.50
2023-04-17T05:04:39.638Z,6.60
2023-04-17T05:07:09.343Z,6.60
2023-04-17T05:09:37.718Z,6.60
2023-04-17T05:12:06.203Z,6.70
2023-04-17T05:14:34.446Z,6.80
2023-04-17T05:17:02.791Z,6.70
2023-04-17T05:19:31.424Z,6.70
2023-04-17T05:21:59.649Z,6.90
2023-04-17T05:24:29.364Z,6.80
2023-04-17T05:26:58.348Z,6.70
2023-04-17T05:29:27.493Z,6.70
2023-04-17T05:31:56.051Z,6.70
2023-04-17T05:34:24.365Z,6.80
2023-04-17T05:36:52.707Z,6.80
2023-04-17T05:39:21.065Z,6.80
2023-04-17T05:41:50.918Z,6.80
2023-04-17T05:44:19.403Z,6.70
2023-04-17T05:46:47.696Z,6.80
2023-04-17T05:49:16.061Z,6.70
2023-04-17T05:51:44.459Z,6.80
2023-04-17T05:54:12.704Z,6.80
2023-04-17T05:56:41.141Z,6.90
2023-04-17T05:59:11.279Z,6.90
2023-04-17T06:01:39.843Z,6.90
2023-04-17T06:04:08.485Z,6.90
2023-04-17T06:06:36.997Z,6.90
2023-04-17T06:09:07.200Z,6.90
2023-04-17T06:11:35.538Z,7.00
2023-04-17T06:14:03.879Z,6.90
2023-04-17T06:16:33.595Z,6.90
2023-04-17T06:19:01.956Z,6.90
2023-04-17T06:21:31.577Z,6.90
2023-04-17T06:23:59.881Z,7.00
2023-04-17T06:26:28.086Z,7.00
2023-04-17T06:28:56.444Z,7.00
2023-04-17T06:31:24.920Z,7.00
2023-04-17T06:33:54.741Z,7.10
2023-04-17T06:36:23.125Z,7.00
2023-04-17T06:38:51.367Z,7.00
2023-04-17T06:41:19.758Z,7.00
2023-04-17T06:43:48.138Z,7.10
2023-04-17T06:46:16.704Z,7.00
2023-04-17T06:48:45.078Z,7.10
2023-04-17T06:51:14.774Z,7.30
2023-04-17T06:53:43.241Z,7.40
2023-04-17T06:56:11.476Z,7.50
2023-04-17T06:58:44.401Z,7.50
2023-04-17T07:01:13.243Z,7.50
2023-04-17T07:03:42.179Z,7.80
2023-04-17T07:06:11.105Z,7.90
2023-04-17T07:08:40.979Z,7.90
2023-04-17T07:11:09.279Z,8.10
2023-04-17T07:13:37.771Z,8.10
2023-04-17T07:16:06.892Z,8.10
2023-04-17T07:18:35.394Z,8.20
2023-04-17T07:21:03.714Z,8.10
2023-04-17T07:23:32.052Z,8.10
2023-04-17T07:26:01.731Z,8.00
2023-04-17T07:28:29.983Z,7.90
2023-04-17T07:30:59.290Z,7.90
2023-04-17T07:33:27.814Z,8.00
2023-04-17T07:35:56.229Z,8.00
2023-04-17T07:38:24.697Z,8.00
2023-04-17T07:40:53.132Z,8.00
2023-04-17T07:43:23.002Z,7.90
2023-04-17T07:45:51.530Z,7.90
2023-04-17T07:48:20.119Z,7.90
2023-04-17T07:50:48.523Z,7.90
2023-04-17T07:53:17.021Z,7.80
2023-04-17T07:55:46.000Z,7.80
2023-04-17T07:58:14.594Z,7.90
2023-04-17T08:00:44.418Z,7.90
2023-04-17T08:03:14.502Z,7.80
2023-04-17T08:05:43.115Z,7.70
2023-04-17T08:08:11.460Z,7.60
2023-04-17T08:10:39.736Z,7.70
2023-04-17T08:13:08.097Z,7.80
2023-04-17T08:15:40.886Z,8.00
2023-04-17T08:18:11.225Z,8.00
2023-04-17T08:20:40.132Z,8.20
2023-04-17T08:23:08.544Z,8.20
2023-04-17T08:25:36.848Z,8.30
2023-04-17T08:28:05.370Z,8.40
2023-04-17T08:30:34.005Z,8.50
2023-04-17T08:33:02.403Z,8.60
2023-04-17T08:35:32.366Z,8.80
2023-04-17T08:38:00.738Z,8.90
2023-04-17T08:40:29.068Z,8.90
2023-04-17T08:42:57.485Z,8.80
2023-04-17T08:45:25.942Z,8.90
2023-04-17T08:47:54.395Z,8.90
2023-04-17T08:50:23.511Z,9.10
2023-04-17T08:52:53.760Z,9.40
2023-04-17T08:55:23.843Z,9.70
2023-04-17T08:57:56.125Z,9.80
2023-04-17T09:00:32.011Z,9.90
2023-04-17T09:03:01.666Z,10.20
2023-04-17T09:05:33.598Z,10.50
2023-04-17T09:08:11.656Z,10.50
2023-04-17T09:10:42.093Z,10.40
2023-04-17T09:13:12.318Z,10.20
2023-04-17T09:15:40.665Z,10.10
2023-04-17T09:18:24.123Z,9.90
2023-04-17T09:20:53.113Z,9.90
2023-04-17T09:23:23.609Z,10.00
2023-04-17T09:26:07.933Z,10.20
2023-04-17T09:28:39.229Z,10.50
2023-04-17T09:31:11.245Z,10.60
2023-04-17T09:33:57.967Z,10.70
2023-04-17T09:36:27.457Z,10.80
2023-04-17T09:38:57.318Z,10.70
2023-04-17T09:41:27.202Z,10.50
2023-04-17T09:43:56.583Z,10.50
2023-04-17T09:46:39.633Z,10.50
2023-04-17T09:49:14.555Z,10.50
2023-04-17T09:51:43.025Z,10.40
2023-04-17T09:54:13.221Z,10.70
2023-04-17T09:56:42.092Z,10.90
2023-04-17T09:59:11.155Z,11.10
2023-04-17T10:01:40.887Z,11.10
2023-04-17T10:04:09.738Z,11.40
2023-04-17T10:06:38.282Z,11.50
2023-04-17T10:09:08.192Z,11.50
2023-04-17T10:11:40.196Z,11.30
2023-04-17T10:14:14.966Z,11.10
2023-04-17T10:16:44.024Z,11.20
2023-04-17T10:19:30.448Z,11.10
2023-04-17T10:22:34.132Z,11.00
2023-04-17T10:25:22.519Z,11.00
2023-04-17T10:27:59.590Z,10.80
2023-04-17T10:30:52.449Z,10.60
2023-04-17T10:33:26.064Z,10.50
2023-04-17T10:35:55.138Z,10.30
2023-04-17T10:38:37.221Z,10.30
2023-04-17T10:41:09.511Z,10.50
2023-04-17T10:43:42.636Z,10.60
2023-04-17T10:46:12.916Z,10.60
2023-04-17T10:48:49.554Z,11.10
2023-04-17T10:51:43.436Z,11.20
2023-04-17T10:54:15.467Z,11.50
2023-04-17T10:56:46.450Z,11.80
2023-04-17T10:59:17.302Z,11.90
2023-04-17T11:02:04.269Z,11.90
2023-04-17T11:04:34.612Z,11.80
2023-04-17T11:07:03.212Z,11.70
2023-04-17T11:09:31.694Z,11.80
2023-04-17T11:12:03.031Z,12.00
2023-04-17T11:14:34.203Z,12.10
2023-04-17T11:17:03.117Z,12.20
2023-04-17T11:19:33.682Z,12.20
2023-04-17T11:22:02.953Z,12.20
2023-04-17T11:24:32.689Z,12.20
2023-04-17T11:27:02.148Z,12.40
2023-04-17T11:29:32.521Z,12.40
2023-04-17T11:32:01.519Z,12.40
2023-04-17T11:34:30.409Z,12.30
2023-04-17T11:37:00.691Z,12.20
2023-04-17T11:39:31.451Z,12.20
2023-04-17T11:41:59.926Z,12.30
2023-04-17T11:44:29.688Z,12.40
2023-04-17T11:47:00.033Z,12.50
2023-04-17T11:49:29.486Z,12.30
2023-04-17T11:52:00.571Z,12.30
2023-04-17T11:54:29.553Z,12.30
2023-04-17T11:57:02.715Z,11.80
2023-04-17T11:59:32.407Z,11.60
2023-04-17T12:02:03.545Z,11.30
2023-04-17T12:04:35.109Z,11.20
2023-04-17T12:07:04.315Z,11.30
2023-04-17T12:09:32.775Z,11.50
2023-04-17T12:12:01.787Z,11.70
2023-04-17T12:14:30.610Z,11.90
2023-04-17T12:16:59.018Z,12.00
2023-04-17T12:19:29.909Z,11.90
2023-04-17T12:21:59.375Z,11.90
2023-04-17T12:24:27.810Z,11.70
2023-04-17T12:26:56.340Z,11.60
2023-04-17T12:29:40.581Z,11.60
2023-04-17T12:32:12.989Z,11.30
2023-04-17T12:34:42.899Z,11.20
2023-04-17T12:37:11.698Z,11.10
2023-04-17T12:39:40.309Z,11.10
2023-04-17T12:42:08.669Z,11.00
2023-04-17T12:44:37.110Z,10.90
2023-04-17T12:47:05.829Z,10.90
2023-04-17T12:49:34.279Z,10.70
2023-04-17T12:52:04.425Z,10.60
2023-04-17T12:54:33.240Z,10.50
2023-04-17T12:57:02.920Z,10.40
2023-04-17T12:59:31.359Z,10.30
2023-04-17T13:01:59.926Z,10.10
2023-04-17T13:04:28.655Z,9.90
2023-04-17T13:06:57.067Z,9.90
2023-04-17T13:09:26.893Z,9.90
2023-04-17T13:11:55.402Z,9.90
2023-04-17T13:14:23.867Z,10.00
2023-04-17T13:16:52.325Z,10.00
2023-04-17T13:19:20.994Z,10.10
2023-04-17T13:21:49.668Z,10.10
2023-04-17T13:24:18.099Z,10.10
2023-04-17T13:26:48.001Z,10.10
2023-04-17T13:29:19.048Z,10.20
2023-04-17T13:31:48.105Z,10.30
2023-04-17T13:34:16.668Z,10.30
2023-04-17T13:36:45.367Z,10.30
2023-04-17T13:39:13.919Z,10.10
2023-04-17T13:41:43.046Z,10.00
2023-04-17T13:44:13.912Z,10.10
2023-04-17T13:46:42.454Z,10.00
2023-04-17T13:49:11.217Z,9.90
2023-04-17T13:51:39.892Z,9.80
2023-04-17T13:54:09.325Z,9.80
2023-04-17T13:56:37.746Z,9.80
2023-04-17T13:59:06.431Z,9.70
2023-04-17T14:01:36.423Z,9.70
2023-04-17T14:04:05.309Z,9.60
2023-04-17T14:06:34.846Z,9.50
2023-04-17T14:09:03.332Z,9.40
2023-04-17T14:11:31.915Z,9.30
2023-04-17T14:14:00.433Z,9.10
2023-04-17T14:16:28.936Z,9.10
2023-04-17T14:19:06.421Z,9.20
2023-04-17T14:21:41.630Z,9.10
2023-04-17T14:24:10.135Z,9.10
2023-04-17T14:26:38.947Z,9.20
2023-04-17T14:29:07.344Z,9.10
2023-04-17T14:31:35.780Z,9.00
2023-04-17T14:34:05.666Z,9.00
2023-04-17T14:36:36.108Z,9.00
2023-04-17T14:39:05.013Z,8.90
2023-04-17T14:41:34.283Z,8.70
2023-04-17T14:44:02.803Z,8.70
2023-04-17T14:46:32.425Z,8.60
2023-04-17T14:49:00.846Z,8.40
2023-04-17T14:51:30.903Z,8.30
2023-04-17T14:53:59.356Z,8.20
2023-04-17T14:56:27.682Z,8.20
2023-04-17T14:58:56.102Z,8.20
2023-04-17T15:01:24.548Z,8.20
2023-04-17T15:03:53.137Z,8.20
2023-04-17T15:06:21.859Z,8.20
2023-04-17T15:08:51.490Z,8.20
2023-04-17T15:11:20.068Z,8.20
2023-04-17T15:13:48.456Z,8.20
2023-04-17T15:16:16.960Z,8.20
2023-04-17T15:18:45.423Z,8.10
2023-04-17T15:21:13.809Z,8.00
2023-04-17T15:23:42.126Z,7.90
2023-04-17T15:26:11.939Z,8.00
2023-04-17T15:28:40.857Z,8.00
2023-04-17T15:31:09.183Z,8.10
2023-04-17T15:33:38.527Z,8.10
2023-04-17T15:36:06.909Z,8.00
2023-04-17T15:38:35.204Z,8.00
2023-04-17T15:41:04.183Z,7.90
2023-04-17T15:43:33.886Z,7.90
2023-04-17T15:46:03.676Z,8.90
2023-04-17T15:48:32.102Z,7.80
2023-04-17T15:51:00.508Z,7.60
2023-04-17T15:53:28.836Z,7.50
2023-04-17T15:55:57.115Z,7.40
2023-04-17T15:58:25.406Z,7.30
2023-04-17T16:00:55.010Z,6.70
2023-04-17T16:03:23.365Z,7.20
2023-04-17T16:05:54.087Z,7.20
2023-04-17T16:08:22.413Z,7.10
2023-04-17T16:10:50.690Z,7.10
2023-04-17T16:13:18.997Z,7.10
2023-04-17T16:15:47.305Z,7.20
2023-04-17T16:18:17.231Z,7.10
2023-04-17T16:20:45.713Z,7.10
2023-04-17T16:23:13.992Z,7.10
2023-04-17T16:25:42.455Z,7.10
2023-04-17T16:28:10.750Z,7.00
2023-04-17T16:30:38.985Z,7.10
2023-04-17T16:33:07.210Z,7.10
2023-04-17T16:35:36.967Z,7.00
2023-04-17T16:38:05.315Z,7.00
2023-04-17T16:40:34.012Z,6.90
2023-04-17T16:43:02.317Z,6.80
2023-04-17T16:45:30.526Z,6.80
2023-04-17T16:47:58.920Z,6.70
2023-04-17T16:50:27.362Z,6.80
2023-04-17T16:52:56.959Z,6.70
2023-04-17T16:55:25.505Z,6.70
2023-04-17T16:57:54.593Z,6.70
2023-04-17T17:00:23.121Z,6.70
2023-04-17T17:02:51.461Z,6.70
2023-04-17T17:05:19.773Z,6.70
2023-04-17T17:07:48.140Z,6.70
2023-04-17T17:10:17.876Z,6.70
2023-04-17T17:12:46.181Z,6.70
2023-04-17T17:15:14.564Z,6.70
2023-04-17T17:17:43.156Z,6.70
2023-04-17T17:20:12.552Z,6.80
2023-04-17T17:22:40.846Z,6.80
2023-04-17T17:25:09.962Z,6.80
2023-04-17T17:27:39.696Z,6.80
2023-04-17T17:30:09.415Z,6.80
2023-04-17T17:32:37.766Z,6.80
2023-04-17T17:35:06.668Z,6.80
2023-04-17T17:37:34.941Z,6.80
2023-04-17T17:40:04.401Z,6.90
2023-04-17T17:42:32.628Z,6.90
2023-04-17T17:45:02.417Z,6.90
2023-04-17T17:47:30.713Z,6.90
2023-04-17T17:49:59.090Z,6.90
2023-04-17T17:52:27.403Z,6.90
2023-04-17T17:54:56.524Z,6.90
2023-04-17T17:57:25.513Z,6.90
2023-04-17T17:59:55.932Z,6.90
2023-04-17T18:02:25.740Z,6.90
2023-04-17T18:04:54.177Z,6.80
2023-04-17T18:07:22.537Z,6.80
2023-04-17T18:09:51.231Z,6.90
2023-04-17T18:12:19.533Z,6.90
2023-04-17T18:14:47.874Z,6.90
2023-04-17T18:17:16.101Z,6.90
2023-04-17T18:19:45.835Z,6.80
2023-04-17T18:22:14.016Z,6.90
2023-04-17T18:24:42.269Z,6.90
2023-04-17T18:27:10.786Z,6.90
2023-04-17T18:29:39.032Z,6.90
2023-04-17T18:32:07.160Z,6.90
2023-04-17T18:34:35.505Z,7.00
2023-04-17T18:37:05.388Z,6.90
2023-04-17T18:39:33.778Z,6.90
2023-04-17T18:42:02.110Z,6.90
2023-04-17T18:44:30.527Z,6.90
2023-04-17T18:46:59.108Z,6.90
2023-04-17T18:49:27.645Z,6.90
2023-04-17T18:51:55.969Z,6.80
2023-04-17T18:54:25.622Z,6.90
2023-04-17T18:56:54.005Z,6.90
2023-04-17T18:59:22.301Z,6.90
2023-04-17T19:01:50.687Z,6.90
2023-04-17T19:04:18.978Z,6.90
2023-04-17T19:06:47.467Z,6.80
2023-04-17T19:09:15.771Z,6.90
2023-04-17T19:11:45.962Z,6.90
2023-04-17T19:14:14.480Z,6.90
2023-04-17T19:16:45.012Z,6.90
2023-04-17T19:19:15.588Z,7.00
2023-04-17T19:21:43.987Z,6.90
2023-04-17T19:24:12.258Z,6.90
2023-04-17T19:26:40.518Z,6.90
2023-04-17T19:29:10.270Z,6.90
2023-04-17T19:31:40.391Z,6.90
2023-04-17T19:34:10.488Z,6.90
2023-04-17T19:36:38.755Z,6.90
2023-04-17T19:39:07.024Z,6.80
2023-04-17T19:41:35.298Z,6.80
2023-04-17T19:44:03.695Z,6.80
2023-04-17T19:46:33.426Z,6.80
2023-04-17T19:49:01.705Z,6.70
2023-04-17T19:51:30.036Z,6.70
2023-04-17T19:53:58.482Z,6.70
2023-04-17T19:56:26.833Z,6.60
2023-04-17T19:58:55.110Z,6.70
2023-04-17T20:01:23.574Z,6.70
2023-04-17T20:03:53.336Z,6.60
2023-04-17T20:06:21.929Z,6.60
2023-04-17T20:08:51.326Z,6.60
2023-04-17T20:11:19.659Z,6.70
2023-04-17T20:13:48.320Z,6.70
2023-04-17T20:16:16.733Z,6.70
2023-04-17T20:18:45.766Z,6.70
2023-04-17T20:21:15.508Z,6.70
2023-04-17T20:23:44.245Z,6.70
2023-04-17T20:26:12.708Z,6.70
2023-04-17T20:28:41.031Z,6.60
2023-04-17T20:31:09.434Z,6.60
2023-04-17T20:33:37.757Z,6.60
2023-04-17T20:36:07.191Z,6.60
2023-04-17T20:38:36.931Z,6.60
2023-04-17T20:41:05.291Z,6.60
2023-04-17T20:43:33.926Z,6.60
2023-04-17T20:46:02.235Z,6.60
2023-04-17T20:48:30.900Z,6.60
2023-04-17T20:51:02.535Z,6.50
2023-04-17T20:53:31.396Z,6.60
2023-04-17T20:56:01.746Z,6.60
2023-04-17T20:58:30.565Z,6.60
2023-04-17T21:01:01.597Z,6.60
2023-04-17T21:03:32.019Z,6.60
2023-04-17T21:06:01.042Z,6.60
2023-04-17T21:08:30.022Z,6.70
2023-04-17T21:10:58.757Z,6.60
2023-04-17T21:13:28.816Z,6.60
2023-04-17T21:15:57.511Z,6.60
2023-04-17T21:18:26.330Z,6.60
2023-04-17T21:20:55.035Z,6.60
2023-04-17T21:23:23.783Z,6.60
2023-04-17T21:25:53.872Z,6.60
2023-04-17T21:28:22.834Z,6.60
2023-04-17T21:30:52.842Z,6.60
2023-04-17T21:33:21.536Z,6.60
2023-04-17T21:35:50.036Z,6.60
2023-04-17T21:38:18.499Z,6.60
2023-04-17T21:43:18.401Z,6.60
2023-04-17T21:45:47.398Z,6.60
2023-04-17T21:48:17.812Z,6.70
2023-04-17T21:50:46.643Z,6.70
2023-04-17T21:53:15.323Z,6.70
2023-04-17T21:55:43.973Z,6.60
2023-04-17T21:58:12.678Z,6.60
2023-04-17T22:00:41.409Z,6.60
2023-04-17T22:03:10.430Z,6.60
2023-04-17T22:05:41.312Z,6.50
2023-04-17T22:08:10.269Z,6.60
2023-04-17T22:10:39.377Z,6.50
2023-04-17T22:13:08.294Z,6.50
2023-04-17T22:15:37.049Z,6.50
2023-04-17T22:18:06.069Z,6.40
2023-04-17T22:20:35.023Z,6.40
2023-04-17T22:23:05.585Z,6.40
2023-04-17T22:25:34.599Z,6.40
2023-04-17T22:28:03.567Z,6.40
2023-04-17T22:30:32.625Z,6.40
2023-04-17T22:33:01.585Z,6.40
2023-04-17T22:35:30.787Z,6.40
2023-04-17T22:37:59.561Z,6.40
2023-04-17T22:40:30.457Z,6.30
2023-04-17T22:42:59.477Z,6.40
2023-04-17T22:45:28.173Z,6.40
2023-04-17T22:47:56.969Z,6.40
2023-04-17T22:50:25.860Z,6.40
2023-04-17T22:52:54.484Z,6.40
2023-04-17T22:55:23.188Z,6.40
2023-04-17T22:57:53.410Z,6.40
2023-04-17T23:00:22.532Z,6.40
2023-04-17T23:02:51.377Z,6.40
2023-04-17T23:05:20.438Z,6.30
2023-04-17T23:07:49.402Z,6.40
2023-04-17T23:10:18.468Z,6.30
2023-04-17T23:12:47.198Z,6.40
2023-04-17T23:15:17.327Z,6.40
2023-04-17T23:17:46.348Z,6.40
2023-04-17T23:20:15.035Z,6.30
2023-04-17T23:22:43.729Z,6.30
2023-04-17T23:25:12.499Z,6.30
2023-04-17T23:27:41.469Z,6.30
2023-04-17T23:30:10.822Z,6.30
2023-04-17T23:32:41.923Z,6.30
2023-04-17T23:35:10.946Z,6.30
2023-04-17T23:37:39.424Z,6.20
2023-04-17T23:40:09.725Z,6.20
2023-04-17T23:42:38.332Z,6.20
2023-04-17T23:45:07.865Z,6.20
2023-04-17T23:47:37.435Z,6.10
2023-04-17T23:50:08.227Z,6.10
2023-04-17T23:52:36.693Z,6.10
2023-04-17T23:55:05.827Z,6.10
2023-04-17T23:57:35.815Z,6.10
